Adair, Missouri
Current Conditions -  °F | °C
As of 5:55 AM on Thursday 29 Jan 2015 (Local Time) from KIRK Reporting Station
Light Snow Light Snow  
Wind Chill: 26°   Ceiling: 1700
Heat Index: 37°   Visibility: 8mi
Dew Point: 31°   Wind: 23mph
Humidity: 79%   Direction: 320°NW
Pressure: 30.01"   Gusts: 35mph
Location:  40.2186°N, 92.4328°W
Report Text: KIRK 291155Z AUTO 32020G30KT 8SM -SN OVC017 03/M01 A3001 RMK AO2 PK WND 33034/1142 SNB02E13B39 SLP170 P0000 60000 T00281006 10106 20028 51043
Loading
Personal Weather Stations






























Interactive Weather Map New forecast layout! Learn more

10-Day Weather Forecast

Advertisements
Track Severe Weather on mobile